Time;durP1;ratioP1;P1;durP2;ratioP2;P2;SDS_P1;SDS_P2;PMS_P1;PMS_P2;Temp;Humidity;BMP_temperature;BMP_pressure;BME280_temperature;BME280_humidity;BME280_pressure;Samples;Min_cycle;Max_cycle;Signal;HPM_P1;HPM_P2
2022/01/13 00:02:03;;;;;;;16.95;3.33;;;;;;;;;;4951282;28;20432;-62
2022/01/13 00:04:34;;;;;;;25.70;3.47;;;;;;;;;;5031469;28;20568;-63
2022/01/13 00:07:04;;;;;;;24.30;3.67;;;;;;;;;;4999222;28;20068;-63
2022/01/13 00:09:37;;;;;;;21.38;3.78;;;;;;;;;;4952024;28;20080;-63
2022/01/13 00:12:09;;;;;;;16.40;3.78;;;;;;;;;;5031285;28;20057;-62
2022/01/13 00:14:52;;;;;;;;;;;;;;;;;;5031808;28;20046;-63
2022/01/13 00:20:09;;;;;;;25.58;4.25;;;;;;;;;;5059165;28;20060;-63
2022/01/13 00:25:54;;;;;;;19.38;4.22;;;;;;;;;;5005176;28;20515;-63
2022/01/13 00:28:25;;;;;;;18.95;5.07;;;;;;;;;;5055719;28;20045;-62
2022/01/13 00:30:57;;;;;;;21.38;4.15;;;;;;;;;;5030545;28;20057;-63
2022/01/13 00:33:27;;;;;;;22.20;4.50;;;;;;;;;;5010510;28;20057;-62
2022/01/13 00:35:59;;;;;;;14.77;4.05;;;;;;;;;;5011310;28;20062;-63
2022/01/13 00:38:32;;;;;;;;;;;;;;;;;;4962925;28;20046;-62
2022/01/13 00:41:03;;;;;;;19.77;3.55;;;;;;;;;;5011014;28;19921;-62
2022/01/13 00:43:39;;;;;;;26.73;3.45;;;;;;;;;;5010788;28;20058;-62
2022/01/13 00:46:11;;;;;;;18.77;4.05;;;;;;;;;;5011045;28;20441;-63
2022/01/13 00:48:42;;;;;;;29.02;4.80;;;;;;;;;;5010771;28;20046;-62
2022/01/13 00:51:12;;;;;;;23.48;4.35;;;;;;;;;;4990851;28;20054;-62
2022/01/13 00:53:43;;;;;;;17.98;3.75;;;;;;;;;;4942621;28;20054;-63
2022/01/13 00:56:13;;;;;;;17.92;3.90;;;;;;;;;;4991222;28;20054;-63
2022/01/13 00:58:43;;;;;;;23.35;3.95;;;;;;;;;;4990766;28;20109;-63
2022/01/13 01:01:14;;;;;;;19.10;3.80;;;;;;;;;;4993949;28;20057;-63
2022/01/13 01:03:45;;;;;;;19.65;3.85;;;;;;;;;;5015761;28;20540;-63
2022/01/13 01:06:15;;;;;;;19.75;4.45;;;;;;;;;;5029909;28;20567;-63
2022/01/13 01:08:45;;;;;;;23.92;3.35;;;;;;;;;;4998341;28;20060;-62
2022/01/13 01:11:16;;;;;;;16.30;4.22;;;;;;;;;;5030300;28;20057;-62
2022/01/13 01:13:50;;;;;;;23.95;4.13;;;;;;;;;;5030331;28;20042;-63
2022/01/13 01:16:21;;;;;;;28.25;4.65;;;;;;;;;;4998933;28;20052;-62
2022/01/13 01:19:00;;;;;;;27.63;4.07;;;;;;;;;;5030086;28;20049;-62
2022/01/13 01:21:46;;;;;;;24.80;4.60;;;;;;;;;;5013739;28;20056;-62
2022/01/13 01:26:55;;;;;;;24.85;4.15;;;;;;;;;;5029862;28;20050;-63
2022/01/13 01:29:42;;;;;;;25.92;4.40;;;;;;;;;;5016376;28;20065;-63
2022/01/13 01:32:15;;;;;;;25.40;4.72;;;;;;;;;;5049466;28;20064;-62
2022/01/13 01:34:56;;;;;;;23.40;3.92;;;;;;;;;;5049822;28;20408;-62
2022/01/13 01:37:30;;;;;;;27.35;4.15;;;;;;;;;;5060883;28;20056;-62
2022/01/13 01:40:01;;;;;;;21.42;4.15;;;;;;;;;;5022629;28;20051;-63
2022/01/13 01:42:36;;;;;;;20.08;3.97;;;;;;;;;;5055597;28;20044;-62
2022/01/13 01:45:09;;;;;;;28.80;4.78;;;;;;;;;;5020269;28;20419;-63
2022/01/13 01:47:41;;;;;;;26.45;4.15;;;;;;;;;;5072243;28;20052;-62
2022/01/13 01:50:18;;;;;;;19.63;4.25;;;;;;;;;;5071966;28;20055;-62
2022/01/13 01:52:51;;;;;;;24.30;4.38;;;;;;;;;;5052920;28;20060;-63
2022/01/13 01:55:21;;;;;;;19.52;3.65;;;;;;;;;;5022199;28;20404;-63
2022/01/13 01:57:58;;;;;;;25.08;4.85;;;;;;;;;;5029107;28;20065;-62
2022/01/13 02:00:28;;;;;;;19.98;4.35;;;;;;;;;;5005667;28;20107;-62
2022/01/13 02:03:00;;;;;;;22.00;3.83;;;;;;;;;;4954230;28;20055;-63
2022/01/13 02:05:30;;;;;;;24.50;4.47;;;;;;;;;;4990046;28;20046;-63
2022/01/13 02:08:02;;;;;;;17.77;3.67;;;;;;;;;;4989901;28;20066;-62
2022/01/13 02:10:32;;;;;;;14.60;3.75;;;;;;;;;;4990571;28;20069;-62
2022/01/13 02:13:07;;;;;;;26.85;4.63;;;;;;;;;;4961749;28;20058;-63
2022/01/13 02:15:59;;;;;;;24.75;6.05;;;;;;;;;;4978274;28;20054;-63
2022/01/13 02:18:32;;;;;;;28.33;5.80;;;;;;;;;;4993747;28;20061;-62
2022/01/13 02:21:02;;;;;;;24.70;7.15;;;;;;;;;;5010001;28;20069;-63
2022/01/13 02:23:36;;;;;;;26.08;7.07;;;;;;;;;;4957824;28;20051;-62
2022/01/13 02:26:09;;;;;;;22.80;6.60;;;;;;;;;;4990074;28;20167;-62
2022/01/13 02:28:41;;;;;;;17.38;6.07;;;;;;;;;;4974177;28;20059;-62
2022/01/13 02:31:12;;;;;;;26.77;5.68;;;;;;;;;;4974295;28;20062;-63
2022/01/13 02:33:43;;;;;;;20.25;5.00;;;;;;;;;;4973946;28;20384;-63
2022/01/13 02:36:16;;;;;;;25.70;5.80;;;;;;;;;;4973518;28;20047;-63
2022/01/13 02:38:53;;;;;;;19.95;4.65;;;;;;;;;;5004314;28;20523;-62
2022/01/13 02:41:24;;;;;;;20.33;3.97;;;;;;;;;;4997108;28;20054;-63
2022/01/13 02:43:58;;;;;;;21.20;3.55;;;;;;;;;;5009668;28;20069;-62
2022/01/13 02:49:11;;;;;;;23.17;4.25;;;;;;;;;;5012973;28;20046;-62
2022/01/13 02:51:44;;;;;;;18.52;3.42;;;;;;;;;;4964359;28;20050;-62
2022/01/13 02:54:13;;;;;;;;;;;;;;;;;;4997330;28;20046;-62
2022/01/13 02:56:45;;;;;;;18.40;3.63;;;;;;;;;;4993375;28;19922;-64
2022/01/13 02:59:16;;;;;;;17.15;3.35;;;;;;;;;;4993260;28;20518;-62
2022/01/13 03:01:46;;;;;;;15.88;3.30;;;;;;;;;;4960710;28;20065;-62
2022/01/13 03:04:17;;;;;;;24.48;4.25;;;;;;;;;;4954426;28;20051;-62
2022/01/13 03:06:48;;;;;;;19.45;3.65;;;;;;;;;;4973572;28;20557;-63
2022/01/13 03:09:21;;;;;;;21.88;3.60;;;;;;;;;;4973460;28;20058;-63
2022/01/13 03:11:51;;;;;;;30.77;3.75;;;;;;;;;;4973472;28;20059;-63
2022/01/13 03:14:21;;;;;;;16.42;3.42;;;;;;;;;;4938288;29;20066;-62
2022/01/13 03:16:51;;;;;;;20.42;3.45;;;;;;;;;;4922337;29;20098;-63
2022/01/13 03:19:22;;;;;;;19.27;3.67;;;;;;;;;;4954121;29;20472;-63
2022/01/13 03:21:53;;;;;;;27.13;3.90;;;;;;;;;;4954305;28;20059;-62
2022/01/13 03:24:23;;;;;;;21.92;3.60;;;;;;;;;;4954085;29;20585;-62
2022/01/13 03:26:54;;;;;;;26.15;4.32;;;;;;;;;;4953929;29;20043;-62
2022/01/13 03:29:25;;;;;;;21.75;3.83;;;;;;;;;;4953980;29;20070;-62
2022/01/13 03:31:57;;;;;;;23.92;3.67;;;;;;;;;;4934142;29;20055;-62
2022/01/13 03:34:27;;;;;;;14.38;3.50;;;;;;;;;;4945424;29;20066;-62
2022/01/13 03:36:57;;;;;;;19.15;3.75;;;;;;;;;;4934007;29;20082;-63
2022/01/13 03:39:29;;;;;;;17.48;4.30;;;;;;;;;;4919178;29;20055;-63
2022/01/13 03:42:02;;;;;;;16.50;3.30;;;;;;;;;;4944796;29;20562;-62
2022/01/13 03:44:32;;;;;;;20.10;3.25;;;;;;;;;;4975931;28;20062;-63
2022/01/13 03:47:04;;;;;;;17.10;3.53;;;;;;;;;;4976352;28;20058;-62
2022/01/13 03:49:35;;;;;;;14.48;3.17;;;;;;;;;;4992226;28;20502;-62
2022/01/13 03:52:14;;;;;;;20.70;3.45;;;;;;;;;;4992284;28;20414;-63
2022/01/13 03:55:40;;;;;;;12.60;2.85;;;;;;;;;;4972764;28;20055;-63
2022/01/13 03:58:41;;;;;;;18.80;3.08;;;;;;;;;;4952982;28;20048;-63
2022/01/13 04:01:29;;;;;;;19.67;3.22;;;;;;;;;;4953313;28;20058;-63
2022/01/13 04:04:00;;;;;;;15.63;3.00;;;;;;;;;;4953146;28;20055;-63
2022/01/13 04:06:42;;;;;;;18.48;3.00;;;;;;;;;;4953666;28;20091;-63
2022/01/13 04:09:36;;;;;;;15.57;3.85;;;;;;;;;;4966624;28;20069;-63
2022/01/13 04:12:08;;;;;;;11.52;3.45;;;;;;;;;;4991988;28;20089;-62
2022/01/13 04:15:00;;;;;;;19.23;3.10;;;;;;;;;;4991888;28;20430;-64
2022/01/13 04:17:33;;;;;;;16.58;3.20;;;;;;;;;;4952342;29;20431;-62
2022/01/13 04:20:04;;;;;;;12.07;3.13;;;;;;;;;;4953168;29;20059;-62
2022/01/13 04:22:34;;;;;;;19.95;3.10;;;;;;;;;;4972026;28;20542;-63
2022/01/13 04:25:06;;;;;;;18.33;3.25;;;;;;;;;;4972217;28;20066;-63
2022/01/13 04:27:42;;;;;;;14.38;2.60;;;;;;;;;;4972106;28;20069;-62
2022/01/13 04:32:45;;;;;;;14.73;3.60;;;;;;;;;;4972160;28;20055;-63
2022/01/13 04:35:16;;;;;;;13.52;3.10;;;;;;;;;;4944594;28;20050;-63
2022/01/13 04:37:47;;;;;;;14.68;3.10;;;;;;;;;;4991416;28;20038;-63
2022/01/13 04:40:17;;;;;;;14.65;3.25;;;;;;;;;;4991552;28;20069;-63
2022/01/13 04:42:53;;;;;;;16.98;3.03;;;;;;;;;;4975105;28;20527;-63
2022/01/13 04:45:25;;;;;;;31.05;3.75;;;;;;;;;;4991407;28;20050;-63
2022/01/13 04:47:57;;;;;;;10.80;2.70;;;;;;;;;;4958715;28;20403;-62
2022/01/13 04:50:28;;;;;;;13.50;2.75;;;;;;;;;;4991322;28;20061;-62
2022/01/13 04:52:58;;;;;;;17.48;3.38;;;;;;;;;;4991186;28;20054;-62
2022/01/13 04:55:31;;;;;;;14.82;2.90;;;;;;;;;;5016267;28;20061;-63
2022/01/13 04:58:04;;;;;;;16.60;2.90;;;;;;;;;;5030221;28;20049;-62
2022/01/13 05:00:34;;;;;;;9.57;3.25;;;;;;;;;;5045680;28;20417;-63
2022/01/13 05:03:04;;;;;;;14.73;3.20;;;;;;;;;;5052677;28;20056;-62
2022/01/13 05:05:34;;;;;;;21.38;2.90;;;;;;;;;;5052481;28;20053;-63
2022/01/13 05:08:05;;;;;;;15.90;2.70;;;;;;;;;;5052444;28;20045;-62
2022/01/13 05:10:35;;;;;;;17.35;3.03;;;;;;;;;;5052340;28;20037;-63
2022/01/13 05:13:09;;;;;;;10.82;2.53;;;;;;;;;;5052109;28;20041;-62
2022/01/13 05:15:42;;;;;;;11.80;2.95;;;;;;;;;;5052357;28;20048;-63
2022/01/13 05:18:28;;;;;;;14.48;3.00;;;;;;;;;;5052164;28;20045;-62
2022/01/13 05:21:07;;;;;;;13.82;3.28;;;;;;;;;;5051185;28;20044;-63
2022/01/13 05:23:37;;;;;;;14.85;2.70;;;;;;;;;;5020951;28;20057;-63
2022/01/13 05:26:07;;;;;;;11.73;2.53;;;;;;;;;;5052262;28;20052;-63
2022/01/13 05:28:40;;;;;;;10.38;2.63;;;;;;;;;;5052164;28;20393;-63
2022/01/13 05:31:11;;;;;;;9.20;2.33;;;;;;;;;;5058529;28;20056;-63
2022/01/13 05:33:42;;;;;;;13.40;2.42;;;;;;;;;;5036607;28;20049;-63
2022/01/13 05:36:13;;;;;;;14.52;2.40;;;;;;;;;;5072148;28;20047;-62
2022/01/13 05:38:43;;;;;;;14.60;2.50;;;;;;;;;;5071751;28;20041;-62
2022/01/13 05:41:14;;;;;;;23.67;2.90;;;;;;;;;;5072016;28;20037;-63
2022/01/13 05:43:44;;;;;;;10.25;2.40;;;;;;;;;;5071791;28;20036;-63
2022/01/13 05:46:15;;;;;;;11.73;2.45;;;;;;;;;;4988522;28;20060;-63
2022/01/13 05:48:45;;;;;;;17.52;2.58;;;;;;;;;;5020271;28;20102;-62
2022/01/13 05:51:15;;;;;;;14.55;2.63;;;;;;;;;;5036519;28;20057;-62
2022/01/13 05:53:46;;;;;;;13.52;2.83;;;;;;;;;;5054528;28;20076;-63
2022/01/13 05:56:17;;;;;;;15.93;3.10;;;;;;;;;;5071426;28;20051;-63
2022/01/13 05:58:48;;;;;;;14.48;2.42;;;;;;;;;;5036165;28;20083;-62
2022/01/13 06:01:18;;;;;;;13.23;2.78;;;;;;;;;;5036621;28;20048;-62
2022/01/13 06:03:49;;;;;;;14.30;2.20;;;;;;;;;;5071582;28;20036;-63
2022/01/13 06:06:19;;;;;;;15.27;2.88;;;;;;;;;;5071708;28;20053;-63
2022/01/13 06:08:49;;;;;;;11.75;2.55;;;;;;;;;;5036783;28;20059;-63
2022/01/13 06:11:22;;;;;;;13.90;2.33;;;;;;;;;;5071538;28;20056;-63
2022/01/13 06:13:53;;;;;;;8.32;2.55;;;;;;;;;;5071472;28;20400;-63
2022/01/13 06:16:23;;;;;;;8.43;2.45;;;;;;;;;;5020724;28;20052;-63
2022/01/13 06:18:54;;;;;;;8.82;2.13;;;;;;;;;;5071466;28;20067;-62
2022/01/13 06:21:24;;;;;;;9.68;2.60;;;;;;;;;;5071401;28;20056;-62
2022/01/13 06:23:55;;;;;;;10.85;2.83;;;;;;;;;;5053912;28;20519;-62
2022/01/13 06:26:25;;;;;;;9.48;2.40;;;;;;;;;;5037081;28;20483;-62
2022/01/13 06:28:56;;;;;;;8.07;2.08;;;;;;;;;;5035976;28;20765;-62
2022/01/13 06:31:26;;;;;;;13.50;2.70;;;;;;;;;;5071172;28;20410;-62
2022/01/13 06:33:56;;;;;;;14.60;2.33;;;;;;;;;;5071225;28;20045;-63
2022/01/13 06:36:26;;;;;;;11.35;2.70;;;;;;;;;;4992638;28;20046;-63
2022/01/13 06:38:58;;;;;;;12.57;2.35;;;;;;;;;;4992947;28;20058;-63
2022/01/13 06:41:28;;;;;;;8.50;2.63;;;;;;;;;;5009270;28;20060;-62
2022/01/13 06:43:58;;;;;;;8.82;2.47;;;;;;;;;;5009603;28;20057;-63
2022/01/13 06:46:28;;;;;;;10.27;2.35;;;;;;;;;;5009375;28;20054;-63
2022/01/13 06:48:59;;;;;;;7.28;2.78;;;;;;;;;;5009161;28;20057;-63
2022/01/13 06:51:34;;;;;;;9.95;2.67;;;;;;;;;;4994019;28;20108;-62
2022/01/13 06:54:04;;;;;;;9.30;2.35;;;;;;;;;;5009188;28;20054;-62
2022/01/13 06:56:34;;;;;;;11.30;2.58;;;;;;;;;;5009746;28;20065;-63
2022/01/13 06:59:10;;;;;;;9.27;2.45;;;;;;;;;;4980137;28;20054;-62
2022/01/13 07:01:41;;;;;;;9.43;2.63;;;;;;;;;;5012910;28;20417;-62
2022/01/13 07:04:14;;;;;;;12.10;2.88;;;;;;;;;;5012893;28;20057;-63
2022/01/13 07:06:45;;;;;;;8.43;2.63;;;;;;;;;;5013192;28;20116;-63
2022/01/13 07:09:19;;;;;;;12.32;2.53;;;;;;;;;;5012712;28;20054;-63
2022/01/13 07:11:49;;;;;;;11.02;2.88;;;;;;;;;;5012910;28;20560;-63
2022/01/13 07:14:20;;;;;;;13.75;3.28;;;;;;;;;;5016640;28;20049;-63
2022/01/13 07:16:50;;;;;;;9.00;2.80;;;;;;;;;;5074669;28;20047;-63
2022/01/13 07:19:20;;;;;;;9.52;3.08;;;;;;;;;;5032046;28;20068;-62
2022/01/13 07:21:50;;;;;;;7.72;2.60;;;;;;;;;;5015782;28;20057;-63
2022/01/13 07:24:21;;;;;;;11.27;5.90;;;;;;;;;;5032252;28;20054;-63
2022/01/13 07:26:51;;;;;;;10.23;2.67;;;;;;;;;;4983126;28;20520;-63
2022/01/13 07:29:21;;;;;;;8.02;2.47;;;;;;;;;;4983289;28;20053;-63
2022/01/13 07:31:52;;;;;;;12.77;2.90;;;;;;;;;;5031910;28;20053;-63
2022/01/13 07:34:23;;;;;;;7.95;2.80;;;;;;;;;;5015721;28;20452;-63
2022/01/13 07:36:53;;;;;;;9.55;2.65;;;;;;;;;;5032137;28;20053;-63
2022/01/13 07:39:23;;;;;;;9.05;2.63;;;;;;;;;;5031908;28;20049;-63
2022/01/13 07:41:53;;;;;;;14.90;3.30;;;;;;;;;;5031730;28;20048;-63
2022/01/13 07:44:31;;;;;;;12.07;3.40;;;;;;;;;;5014952;28;20489;-63
2022/01/13 07:47:01;;;;;;;8.23;3.55;;;;;;;;;;5031712;28;20050;-63
2022/01/13 07:49:31;;;;;;;10.63;3.17;;;;;;;;;;5031828;28;20049;-63
2022/01/13 07:52:04;;;;;;;12.27;3.80;;;;;;;;;;5031665;28;20049;-63
2022/01/13 07:54:35;;;;;;;10.98;3.35;;;;;;;;;;5031434;28;20056;-63
2022/01/13 07:57:05;;;;;;;7.57;3.08;;;;;;;;;;5038329;28;20056;-63
2022/01/13 07:59:36;;;;;;;13.10;3.10;;;;;;;;;;5038588;28;20056;-63
2022/01/13 08:02:06;;;;;;;9.13;3.22;;;;;;;;;;5039052;28;20515;-63
2022/01/13 08:04:36;;;;;;;8.57;3.10;;;;;;;;;;5051009;28;20049;-63
2022/01/13 08:07:07;;;;;;;8.75;3.63;;;;;;;;;;5051670;28;20064;-63
2022/01/13 08:09:37;;;;;;;10.93;3.40;;;;;;;;;;5030009;28;20057;-63
2022/01/13 08:12:08;;;;;;;10.77;3.00;;;;;;;;;;5014754;28;20663;-63
2022/01/13 08:14:38;;;;;;;8.02;2.90;;;;;;;;;;4991406;28;20050;-64
2022/01/13 08:17:18;;;;;;;10.98;3.55;;;;;;;;;;4991697;28;20061;-63
2022/01/13 08:19:49;;;;;;;10.52;3.13;;;;;;;;;;4991775;28;20057;-63
2022/01/13 08:22:20;;;;;;;9.32;3.40;;;;;;;;;;4991541;28;20573;-63
2022/01/13 08:24:49;;;;;;;8.48;2.88;;;;;;;;;;4991868;28;20054;-63
2022/01/13 08:27:20;;;;;;;8.73;3.25;;;;;;;;;;4991691;28;20061;-63
2022/01/13 08:29:50;;;;;;;6.93;3.35;;;;;;;;;;4991522;28;20061;-63
2022/01/13 08:32:21;;;;;;;8.98;2.95;;;;;;;;;;4991500;28;20414;-63
2022/01/13 08:34:51;;;;;;;8.15;3.38;;;;;;;;;;4991423;28;20641;-64
2022/01/13 08:37:21;;;;;;;8.52;3.20;;;;;;;;;;4991360;28;20050;-63
2022/01/13 08:39:51;;;;;;;9.73;3.25;;;;;;;;;;4991375;28;20070;-63
2022/01/13 08:42:22;;;;;;;12.52;3.03;;;;;;;;;;4991470;28;20059;-63
2022/01/13 08:44:52;;;;;;;11.40;3.08;;;;;;;;;;4991606;28;20065;-63
2022/01/13 08:47:24;;;;;;;12.35;3.67;;;;;;;;;;5002123;28;20062;-63
2022/01/13 08:49:54;;;;;;;6.22;3.15;;;;;;;;;;5011057;28;20568;-64
2022/01/13 08:52:24;;;;;;;10.05;3.30;;;;;;;;;;5045684;28;20063;-63
2022/01/13 08:54:59;;;;;;;8.98;2.95;;;;;;;;;;5021213;28;20048;-63
2022/01/13 08:57:30;;;;;;;12.85;2.92;;;;;;;;;;5072535;28;20036;-63
2022/01/13 09:00:00;;;;;;;12.10;3.05;;;;;;;;;;5072687;28;20407;-63
2022/01/13 09:02:33;;;;;;;11.30;3.50;;;;;;;;;;5072565;28;20044;-63
2022/01/13 09:05:05;;;;;;;13.85;3.42;;;;;;;;;;5072657;28;20059;-63
2022/01/13 09:07:36;;;;;;;9.50;2.92;;;;;;;;;;5072665;28;20049;-63
2022/01/13 09:10:06;;;;;;;9.38;3.47;;;;;;;;;;5072452;28;20052;-64
2022/01/13 09:12:37;;;;;;;13.32;3.33;;;;;;;;;;5037252;28;20059;-63
2022/01/13 09:15:18;;;;;;;13.13;2.92;;;;;;;;;;5010333;28;20062;-63
2022/01/13 09:17:51;;;;;;;7.95;2.88;;;;;;;;;;4990462;28;20054;-63
2022/01/13 09:20:23;;;;;;;8.90;2.63;;;;;;;;;;4958298;28;20425;-63
2022/01/13 09:22:55;;;;;;;7.40;2.45;;;;;;;;;;4990695;28;20171;-63
2022/01/13 09:25:26;;;;;;;7.60;2.88;;;;;;;;;;4958912;28;20544;-63
2022/01/13 09:27:56;;;;;;;13.77;3.42;;;;;;;;;;4932452;29;20060;-63
2022/01/13 09:30:28;;;;;;;7.72;2.60;;;;;;;;;;4900807;29;20063;-63
2022/01/13 09:32:58;;;;;;;9.25;2.72;;;;;;;;;;4932633;29;20055;-63
2022/01/13 09:35:28;;;;;;;15.52;2.65;;;;;;;;;;4932480;29;20047;-63
2022/01/13 09:37:59;;;;;;;13.00;3.60;;;;;;;;;;4900966;29;20056;-63
2022/01/13 09:40:31;;;;;;;13.30;4.07;;;;;;;;;;4932674;29;20051;-63
2022/01/13 09:43:02;;;;;;;16.17;4.03;;;;;;;;;;4932577;29;20056;-63
2022/01/13 09:45:33;;;;;;;15.73;3.45;;;;;;;;;;4932457;29;20059;-63
2022/01/13 09:48:04;;;;;;;11.10;2.92;;;;;;;;;;4919980;29;20055;-63
2022/01/13 09:50:34;;;;;;;11.75;3.22;;;;;;;;;;4951727;29;20047;-63
2022/01/13 09:53:04;;;;;;;10.50;3.03;;;;;;;;;;4989111;28;20494;-63
2022/01/13 09:55:34;;;;;;;6.95;2.70;;;;;;;;;;4977212;28;20050;-63
2022/01/13 09:58:10;;;;;;;9.82;2.72;;;;;;;;;;5009729;28;20150;-63
2022/01/13 10:00:44;;;;;;;14.48;2.65;;;;;;;;;;5009899;28;20057;-63
2022/01/13 10:03:23;;;;;;;12.95;2.88;;;;;;;;;;5009596;28;20041;-64
2022/01/13 10:05:55;;;;;;;12.65;2.95;;;;;;;;;;5048477;28;20528;-64
2022/01/13 10:08:48;;;;;;;11.93;2.95;;;;;;;;;;5071590;28;20063;-63
2022/01/13 10:11:32;;;;;;;12.57;3.03;;;;;;;;;;4913075;29;20170;-64
2022/01/13 10:17:05;;;;;;;12.40;3.03;;;;;;;;;;4894155;29;20060;-64
2022/01/13 10:19:46;;;;;;;9.73;2.75;;;;;;;;;;4894093;29;20076;-63
2022/01/13 10:22:25;;;;;;;9.68;3.08;;;;;;;;;;4894154;29;20065;-63
2022/01/13 10:24:58;;;;;;;7.38;3.33;;;;;;;;;;4878670;29;20064;-63
2022/01/13 10:27:34;;;;;;;10.18;3.00;;;;;;;;;;4894295;29;20056;-63
2022/01/13 10:30:14;;;;;;;11.70;3.58;;;;;;;;;;4878677;29;20415;-64
2022/01/13 10:32:45;;;;;;;10.18;3.60;;;;;;;;;;4881241;29;20049;-63
2022/01/13 10:35:18;;;;;;;9.52;3.25;;;;;;;;;;4897817;29;20056;-64
2022/01/13 10:37:58;;;;;;;9.55;3.33;;;;;;;;;;4897297;29;20060;-64
2022/01/13 10:40:34;;;;;;;13.27;2.95;;;;;;;;;;4912820;29;20055;-63
2022/01/13 10:43:06;;;;;;;11.52;3.10;;;;;;;;;;4882610;29;20052;-64
2022/01/13 10:45:55;;;;;;;6.53;3.15;;;;;;;;;;4882200;29;20571;-64
2022/01/13 10:48:34;;;;;;;5.93;3.17;;;;;;;;;;4926063;28;20406;-64
2022/01/13 10:51:07;;;;;;;7.03;2.88;;;;;;;;;;4978858;28;20537;-64
2022/01/13 10:53:40;;;;;;;7.50;3.42;;;;;;;;;;5013573;28;20056;-65
2022/01/13 10:56:18;;;;;;;8.55;2.97;;;;;;;;;;5040448;28;20053;-65
2022/01/13 10:58:51;;;;;;;10.57;3.20;;;;;;;;;;5074989;28;20044;-64
2022/01/13 11:01:32;;;;;;;6.32;2.72;;;;;;;;;;5039633;28;20052;-64
2022/01/13 11:04:15;;;;;;;5.78;2.63;;;;;;;;;;5057534;28;20036;-64
2022/01/13 11:06:46;;;;;;;10.77;2.90;;;;;;;;;;5074509;28;20048;-65
2022/01/13 11:09:18;;;;;;;6.72;2.75;;;;;;;;;;4996413;28;20060;-65
2022/01/13 11:11:58;;;;;;;4.05;2.17;;;;;;;;;;4996406;28;20065;-63
2022/01/13 11:14:28;;;;;;;5.45;2.75;;;;;;;;;;5012478;28;20069;-64
2022/01/13 11:17:00;;;;;;;5.13;2.53;;;;;;;;;;4979966;28;20057;-65
2022/01/13 11:19:35;;;;;;;7.25;2.45;;;;;;;;;;5012453;28;20042;-65
2022/01/13 11:22:06;;;;;;;5.40;2.70;;;;;;;;;;4972983;28;20046;-65
2022/01/13 11:24:38;;;;;;;6.63;2.13;;;;;;;;;;4941246;28;20053;-63
2022/01/13 11:27:09;;;;;;;9.32;2.60;;;;;;;;;;4973382;28;20055;-65
2022/01/13 11:29:40;;;;;;;7.88;2.60;;;;;;;;;;4973127;28;20542;-65
2022/01/13 11:32:11;;;;;;;7.28;2.38;;;;;;;;;;4973004;28;20059;-64
2022/01/13 11:34:42;;;;;;;6.10;2.03;;;;;;;;;;4973297;28;20411;-65
2022/01/13 11:37:13;;;;;;;5.97;2.42;;;;;;;;;;4941279;28;20055;-65
2022/01/13 11:39:45;;;;;;;4.82;2.10;;;;;;;;;;4972874;28;20053;-63
2022/01/13 11:42:16;;;;;;;4.18;2.15;;;;;;;;;;4973131;28;20050;-64
2022/01/13 11:45:13;;;;;;;6.22;2.72;;;;;;;;;;4972280;28;20046;-64
2022/01/13 11:47:44;;;;;;;6.70;1.80;;;;;;;;;;5022002;28;20066;-64
2022/01/13 11:50:31;;;;;;;8.50;2.30;;;;;;;;;;5031599;28;20058;-63
2022/01/13 11:53:01;;;;;;;4.28;1.92;;;;;;;;;;5031631;28;20060;-68
2022/01/13 11:55:41;;;;;;;5.00;2.20;;;;;;;;;;5031669;28;20053;-64
2022/01/13 11:58:41;;;;;;;3.95;2.13;;;;;;;;;;5031603;28;20054;-66
2022/01/13 12:01:32;;;;;;;5.80;1.83;;;;;;;;;;5033840;28;20056;-64
2022/01/13 12:04:08;;;;;;;4.38;1.92;;;;;;;;;;5032571;28;20049;-65
2022/01/13 12:06:51;;;;;;;4.72;1.83;;;;;;;;;;5031472;28;20046;-65
2022/01/13 12:09:24;;;;;;;3.70;1.55;;;;;;;;;;5031356;28;20524;-65
2022/01/13 12:11:56;;;;;;;6.90;1.90;;;;;;;;;;5031643;28;20053;-65
2022/01/13 12:14:32;;;;;;;3.13;1.70;;;;;;;;;;5031438;28;20045;-65
2022/01/13 12:17:27;;;;;;;6.90;1.98;;;;;;;;;;5031088;28;20045;-64
2022/01/13 12:20:03;;;;;;;5.22;2.10;;;;;;;;;;4985754;28;20056;-64
2022/01/13 12:22:44;;;;;;;5.40;2.05;;;;;;;;;;5015101;28;20045;-65
2022/01/13 12:25:20;;;;;;;3.10;1.90;;;;;;;;;;5031246;28;20421;-65
2022/01/13 12:27:52;;;;;;;2.35;1.45;;;;;;;;;;5030870;28;20520;-65
2022/01/13 12:30:23;;;;;;;3.42;1.55;;;;;;;;;;5030850;28;20057;-64
2022/01/13 12:33:01;;;;;;;3.80;1.55;;;;;;;;;;5014106;28;20540;-63
2022/01/13 12:35:48;;;;;;;3.67;1.73;;;;;;;;;;5031036;28;20042;-62
2022/01/13 12:38:22;;;;;;;3.08;1.60;;;;;;;;;;4991310;28;20441;-63
2022/01/13 12:41:04;;;;;;;6.68;1.50;;;;;;;;;;4991434;28;20531;-65
2022/01/13 12:46:24;;;;;;;3.33;1.65;;;;;;;;;;4991344;28;20042;-64
2022/01/13 12:48:56;;;;;;;4.03;1.73;;;;;;;;;;4991275;28;20514;-64
2022/01/13 12:51:29;;;;;;;7.20;4.82;;;;;;;;;;4991409;28;20054;-62
2022/01/13 12:54:00;;;;;;;3.67;1.70;;;;;;;;;;4991262;28;20534;-63
2022/01/13 12:56:30;;;;;;;3.78;2.30;;;;;;;;;;4990852;28;20072;-62
2022/01/13 12:59:03;;;;;;;3.72;1.67;;;;;;;;;;4991235;28;20058;-63
2022/01/13 13:01:37;;;;;;;7.05;1.90;;;;;;;;;;4975128;28;20050;-62
2022/01/13 13:04:13;;;;;;;4.15;2.33;;;;;;;;;;4975730;28;20050;-65
2022/01/13 13:06:48;;;;;;;3.17;1.63;;;;;;;;;;4991062;28;20057;-65
2022/01/13 13:09:23;;;;;;;4.78;1.52;;;;;;;;;;4974941;28;20069;-68
2022/01/13 13:11:58;;;;;;;4.13;1.77;;;;;;;;;;4975179;28;20054;-65
2022/01/13 13:17:33;;;;;;;7.30;1.40;;;;;;;;;;5030404;28;20056;-63
2022/01/13 13:20:05;;;;;;;3.10;1.30;;;;;;;;;;5032242;28;20424;-63
2022/01/13 13:22:50;;;;;;;3.15;1.50;;;;;;;;;;5032187;28;20436;-62
2022/01/13 13:25:40;;;;;;;6.88;1.50;;;;;;;;;;5032268;28;20397;-62
2022/01/13 13:28:25;;;;;;;2.58;1.42;;;;;;;;;;5009985;28;20403;-63
2022/01/13 13:30:58;;;;;;;6.28;1.52;;;;;;;;;;5014010;28;20045;-63
2022/01/13 13:33:59;;;;;;;5.75;1.65;;;;;;;;;;4990141;28;20050;-62
2022/01/13 13:36:51;;;;;;;6.38;1.90;;;;;;;;;;4990229;28;20046;-62
2022/01/13 13:39:23;;;;;;;2.72;1.27;;;;;;;;;;4990418;28;20509;-63
2022/01/13 13:42:01;;;;;;;7.18;2.85;;;;;;;;;;4951477;29;20059;-62
2022/01/13 13:44:38;;;;;;;3.85;1.63;;;;;;;;;;4919855;29;20161;-63
2022/01/13 13:47:17;;;;;;;3.80;1.52;;;;;;;;;;4951559;29;20051;-63
2022/01/13 13:49:51;;;;;;;2.17;1.33;;;;;;;;;;4951505;29;20058;-63
2022/01/13 13:52:21;;;;;;;3.42;1.38;;;;;;;;;;4920663;29;20055;-65
2022/01/13 13:54:54;;;;;;;2.45;1.73;;;;;;;;;;4919720;29;20066;-66
2022/01/13 13:57:37;;;;;;;8.25;1.77;;;;;;;;;;4951686;29;20055;-63
2022/01/13 14:00:11;;;;;;;6.15;1.27;;;;;;;;;;4951349;29;20051;-62
2022/01/13 14:02:49;;;;;;;4.43;1.75;;;;;;;;;;4951551;29;20043;-66
2022/01/13 14:05:24;;;;;;;3.60;1.13;;;;;;;;;;4972602;28;20062;-63
2022/01/13 14:08:06;;;;;;;4.07;1.48;;;;;;;;;;4981504;28;20515;-65
2022/01/13 14:10:36;;;;;;;3.92;2.05;;;;;;;;;;4954626;28;20084;-67
2022/01/13 14:13:08;;;;;;;2.63;1.13;;;;;;;;;;4970580;28;20058;-66
2022/01/13 14:15:43;;;;;;;3.90;1.70;;;;;;;;;;4985972;28;20051;-65
2022/01/13 14:18:18;;;;;;;4.38;1.50;;;;;;;;;;4972849;28;20078;-63
2022/01/13 14:20:49;;;;;;;3.13;1.30;;;;;;;;;;4989750;28;20908;-66
2022/01/13 14:23:19;;;;;;;1.90;1.30;;;;;;;;;;4973361;28;20126;-66
2022/01/13 14:25:52;;;;;;;1.90;1.20;;;;;;;;;;4973316;28;20569;-69
2022/01/13 14:28:22;;;;;;;3.72;1.20;;;;;;;;;;4989429;28;20051;-63
2022/01/13 14:31:06;;;;;;;2.38;1.13;;;;;;;;;;4993185;28;20064;-63
2022/01/13 14:33:45;;;;;;;;;;;;;;;;;;5009599;28;20449;-65
2022/01/13 14:36:25;;;;;;;3.10;1.42;;;;;;;;;;5009688;28;19921;-64
2022/01/13 14:38:58;;;;;;;20.65;10.73;;;;;;;;;;5018848;28;20048;-65
2022/01/13 14:41:40;;;;;;;4.25;1.67;;;;;;;;;;5092598;28;20036;-62
2022/01/13 14:44:16;;;;;;;3.92;1.45;;;;;;;;;;5085761;28;20052;-65
2022/01/13 14:46:51;;;;;;;1.73;1.42;;;;;;;;;;5062025;28;20048;-63
2022/01/13 14:49:28;;;;;;;2.78;1.60;;;;;;;;;;5084204;28;20040;-63
2022/01/13 14:52:01;;;;;;;5.03;1.30;;;;;;;;;;5042838;28;20053;-64
2022/01/13 14:54:33;;;;;;;6.38;1.95;;;;;;;;;;5008863;28;20409;-64
2022/01/13 14:57:06;;;;;;;3.50;1.60;;;;;;;;;;5004168;28;20054;-65
2022/01/13 14:59:38;;;;;;;7.15;1.58;;;;;;;;;;5009042;28;20058;-65
2022/01/13 15:02:08;;;;;;;3.08;1.50;;;;;;;;;;5008859;28;20058;-64
2022/01/13 15:04:39;;;;;;;3.67;1.52;;;;;;;;;;4976785;28;20073;-63
2022/01/13 15:07:10;;;;;;;2.33;1.40;;;;;;;;;;5008925;28;20049;-62
2022/01/13 15:09:40;;;;;;;2.80;1.52;;;;;;;;;;4993056;28;20057;-61
2022/01/13 15:12:11;;;;;;;3.58;1.73;;;;;;;;;;4969636;28;20055;-62
2022/01/13 15:14:41;;;;;;;2.75;1.75;;;;;;;;;;4938488;28;20058;-62
2022/01/13 15:17:11;;;;;;;2.50;1.58;;;;;;;;;;4969699;28;20078;-61
2022/01/13 15:19:46;;;;;;;5.40;1.55;;;;;;;;;;4953750;29;20570;-65
2022/01/13 15:22:17;;;;;;;2.55;1.23;;;;;;;;;;4913021;28;20043;-62
2022/01/13 15:24:48;;;;;;;3.75;1.27;;;;;;;;;;4976831;28;20069;-63
2022/01/13 15:27:18;;;;;;;2.47;1.40;;;;;;;;;;4993055;28;20046;-61
2022/01/13 15:29:49;;;;;;;3.28;1.73;;;;;;;;;;4976518;28;20059;-62
2022/01/13 15:32:19;;;;;;;5.05;1.40;;;;;;;;;;4983048;28;20509;-64
2022/01/13 15:34:50;;;;;;;3.30;1.40;;;;;;;;;;5000001;28;20391;-64
2022/01/13 15:37:20;;;;;;;2.28;1.42;;;;;;;;;;5032153;28;20053;-62
2022/01/13 15:39:50;;;;;;;4.05;1.65;;;;;;;;;;5032400;28;20050;-64